createdAt,value
2023-04-02T00:00:35.175Z,1.50
2023-04-02T00:02:52.492Z,1.33
2023-04-02T00:05:09.565Z,1.27
2023-04-02T00:07:26.885Z,1.98
2023-04-02T00:09:43.975Z,1.58
2023-04-02T00:12:01.213Z,1.50
2023-04-02T00:14:18.507Z,1.60
2023-04-02T00:16:35.815Z,1.60
2023-04-02T00:18:53.146Z,1.52
2023-04-02T00:21:10.209Z,1.58
2023-04-02T00:23:27.335Z,1.70
2023-04-02T00:25:44.655Z,1.70
2023-04-02T00:28:01.739Z,1.95
2023-04-02T00:30:19.320Z,1.60
2023-04-02T00:32:36.312Z,1.50
2023-04-02T00:34:53.430Z,1.40
2023-04-02T00:37:10.463Z,1.45
2023-04-02T00:39:27.716Z,1.27
2023-04-02T00:41:46.186Z,1.20
2023-04-02T00:44:04.041Z,1.35
2023-04-02T00:46:21.927Z,1.40
2023-04-02T00:48:38.877Z,1.33
2023-04-02T00:50:55.822Z,1.20
2023-04-02T00:53:12.892Z,1.40
2023-04-02T00:55:30.233Z,1.30
2023-04-02T00:57:48.261Z,1.73
2023-04-02T01:00:05.170Z,1.70
2023-04-02T01:02:22.320Z,1.60
2023-04-02T01:04:39.843Z,1.45
2023-04-02T01:06:56.821Z,1.50
2023-04-02T01:09:13.718Z,1.52
2023-04-02T01:11:30.751Z,1.30
2023-04-02T01:13:47.740Z,1.40
2023-04-02T01:16:05.828Z,1.45
2023-04-02T01:18:23.130Z,2.40
2023-04-02T01:20:40.426Z,1.75
2023-04-02T01:22:57.799Z,1.45
2023-04-02T01:25:14.879Z,1.50
2023-04-02T01:27:31.956Z,1.60
2023-04-02T01:29:48.896Z,1.60
2023-04-02T01:32:05.996Z,1.30
2023-04-02T01:34:25.060Z,1.35
2023-04-02T01:36:43.192Z,1.48
2023-04-02T01:39:02.872Z,1.45
2023-04-02T01:41:20.202Z,1.25
2023-04-02T01:43:37.551Z,1.23
2023-04-02T01:45:54.579Z,1.10
2023-04-02T01:48:11.550Z,1.15
2023-04-02T01:50:28.595Z,1.10
2023-04-02T01:52:45.654Z,1.20
2023-04-02T01:55:02.708Z,1.45
2023-04-02T01:57:19.850Z,1.30
2023-04-02T01:59:37.332Z,1.33
2023-04-02T02:01:54.657Z,1.40
2023-04-02T02:04:11.740Z,1.40
2023-04-02T02:06:28.996Z,1.45
2023-04-02T02:08:45.976Z,1.60
2023-04-02T02:11:04.204Z,1.20
2023-04-02T02:13:21.324Z,1.40
2023-04-02T02:15:39.336Z,1.30
2023-04-02T02:17:56.639Z,1.40
2023-04-02T02:20:14.089Z,1.45
2023-04-02T02:22:31.115Z,1.23
2023-04-02T02:24:48.169Z,1.40
2023-04-02T02:27:05.311Z,1.40
2023-04-02T02:29:23.520Z,1.38
2023-04-02T02:31:40.454Z,1.40
2023-04-02T02:33:57.684Z,1.40
2023-04-02T02:36:14.786Z,1.20
2023-04-02T02:38:31.901Z,1.17
2023-04-02T02:40:49.212Z,1.30
2023-04-02T02:43:06.512Z,1.30
2023-04-02T02:45:23.819Z,1.38
2023-04-02T02:47:41.085Z,1.70
2023-04-02T02:49:59.072Z,1.20
2023-04-02T02:52:16.433Z,1.50
2023-04-02T02:54:33.408Z,1.33
2023-04-02T02:56:50.370Z,1.30
2023-04-02T02:59:07.431Z,1.23
2023-04-02T03:01:24.796Z,1.15
2023-04-02T03:03:42.117Z,1.40
2023-04-02T03:06:00.262Z,1.00
2023-04-02T03:08:17.558Z,1.38
2023-04-02T03:10:35.730Z,1.20
2023-04-02T03:12:52.755Z,1.30
2023-04-02T03:15:09.801Z,1.55
2023-04-02T03:17:27.811Z,1.17
2023-04-02T03:19:45.131Z,1.40
2023-04-02T03:22:02.425Z,1.30
2023-04-02T03:24:20.703Z,1.30
2023-04-02T03:26:37.646Z,1.10
2023-04-02T03:28:54.761Z,1.38
2023-04-02T03:31:11.723Z,1.40
2023-04-02T03:33:29.738Z,1.67
2023-04-02T03:35:47.008Z,1.42
2023-04-02T03:38:04.951Z,1.40
2023-04-02T03:40:22.325Z,1.30
2023-04-02T03:42:39.382Z,1.40
2023-04-02T03:44:56.456Z,1.40
2023-04-02T03:47:13.495Z,1.30
2023-04-02T03:49:30.442Z,1.40
2023-04-02T03:51:48.468Z,1.60
2023-04-02T03:54:05.723Z,1.25
2023-04-02T03:56:23.207Z,1.20
2023-04-02T03:58:40.146Z,1.00
2023-04-02T04:00:57.171Z,1.27
2023-04-02T04:03:14.224Z,1.40
2023-04-02T04:05:31.137Z,1.80
2023-04-02T04:07:48.070Z,1.20
2023-04-02T04:10:05.097Z,1.58
2023-04-02T04:12:21.995Z,1.30
2023-04-02T04:14:39.254Z,1.42
2023-04-02T04:16:56.251Z,1.80
2023-04-02T04:19:13.559Z,1.83
2023-04-02T04:21:30.537Z,1.50
2023-04-02T04:23:47.790Z,1.70
2023-04-02T04:26:04.833Z,1.55
2023-04-02T04:28:21.862Z,1.52
2023-04-02T04:30:40.133Z,1.40
2023-04-02T04:32:57.192Z,1.88
2023-04-02T04:35:14.573Z,1.65
2023-04-02T04:37:31.537Z,2.10
2023-04-02T04:39:48.552Z,2.30
2023-04-02T04:42:05.486Z,2.22
2023-04-02T04:44:22.478Z,2.50
2023-04-02T04:46:42.696Z,2.28
2023-04-02T04:48:59.704Z,2.38
2023-04-02T04:51:16.650Z,2.00
2023-04-02T04:53:33.981Z,2.25
2023-04-02T04:55:51.022Z,2.10
2023-04-02T04:58:08.089Z,2.00
2023-04-02T05:00:25.310Z,2.10
2023-04-02T05:02:42.364Z,2.05
2023-04-02T05:04:59.532Z,2.10
2023-04-02T05:07:16.887Z,2.60
2023-04-02T05:09:33.900Z,2.15
2023-04-02T05:11:50.937Z,2.60
2023-04-02T05:14:08.376Z,2.15
2023-04-02T05:16:25.391Z,2.13
2023-04-02T05:18:42.367Z,2.15
2023-04-02T05:20:59.632Z,2.20
2023-04-02T05:23:16.641Z,2.50
2023-04-02T05:25:33.841Z,2.33
2023-04-02T05:27:50.946Z,2.03
2023-04-02T05:30:08.007Z,2.17
2023-04-02T05:32:24.991Z,2.20
2023-04-02T05:34:42.026Z,2.10
2023-04-02T05:36:59.260Z,2.10
2023-04-02T05:39:16.374Z,2.00
2023-04-02T05:41:33.598Z,2.00
2023-04-02T05:43:50.472Z,1.92
2023-04-02T05:46:08.730Z,1.92
2023-04-02T05:48:25.989Z,2.10
2023-04-02T05:50:43.042Z,2.20
2023-04-02T05:53:00.108Z,2.30
2023-04-02T05:55:17.392Z,2.10
2023-04-02T05:57:44.614Z,2.20
2023-04-02T06:00:06.720Z,1.98
2023-04-02T06:02:24.817Z,1.60
2023-04-02T06:04:42.143Z,2.25
2023-04-02T06:06:59.205Z,1.58
2023-04-02T06:09:16.467Z,1.67
2023-04-02T06:11:33.504Z,1.92
2023-04-02T06:13:50.745Z,1.90
2023-04-02T06:16:07.853Z,2.00
2023-04-02T06:18:24.860Z,2.22
2023-04-02T06:20:41.928Z,1.85
2023-04-02T06:22:58.969Z,1.75
2023-04-02T06:25:15.941Z,1.88
2023-04-02T06:27:33.996Z,1.80
2023-04-02T06:29:51.005Z,1.60
2023-04-02T06:32:08.066Z,1.75
2023-04-02T06:34:25.338Z,1.70
2023-04-02T06:36:42.529Z,1.90
2023-04-02T06:38:59.773Z,1.73
2023-04-02T06:41:16.839Z,1.90
2023-04-02T06:43:33.899Z,2.10
2023-04-02T06:45:51.305Z,1.70
2023-04-02T06:48:08.707Z,1.83
2023-04-02T06:50:25.970Z,1.60
2023-04-02T06:52:43.274Z,1.60
2023-04-02T06:55:00.530Z,2.05
2023-04-02T06:57:17.609Z,1.58
2023-04-02T06:59:34.738Z,3.35
2023-04-02T07:01:51.928Z,2.10
2023-04-02T07:04:08.981Z,1.95
2023-04-02T07:06:25.976Z,1.40
2023-04-02T07:08:43.931Z,1.60
2023-04-02T07:11:01.053Z,1.33
2023-04-02T07:13:18.296Z,1.10
2023-04-02T07:15:36.442Z,1.40
2023-04-02T07:17:53.923Z,1.38
2023-04-02T07:20:10.980Z,1.58
2023-04-02T07:22:29.199Z,1.27
2023-04-02T07:24:46.234Z,1.40
2023-04-02T07:27:04.438Z,1.60
2023-04-02T07:29:21.531Z,1.30
2023-04-02T07:31:38.778Z,1.10
2023-04-02T07:33:55.828Z,1.00
2023-04-02T07:36:13.191Z,1.30
2023-04-02T07:38:31.123Z,1.33
2023-04-02T07:40:48.357Z,1.15
2023-04-02T07:43:06.358Z,1.25
2023-04-02T07:45:23.636Z,1.30
2023-04-02T07:47:40.969Z,1.20
2023-04-02T07:49:57.968Z,1.08
2023-04-02T07:52:14.963Z,6.38
2023-04-02T07:54:31.921Z,5.10
2023-04-02T07:56:48.923Z,3.13
2023-04-02T07:59:05.915Z,1.77
2023-04-02T08:01:22.805Z,1.70
2023-04-02T08:03:39.812Z,1.40
2023-04-02T08:05:56.915Z,1.13
2023-04-02T08:08:13.940Z,1.40
2023-04-02T08:10:31.245Z,3.65
2023-04-02T08:12:48.488Z,1.95
2023-04-02T08:15:05.516Z,2.00
2023-04-02T08:17:22.583Z,1.50
2023-04-02T08:19:53.794Z,1.98
2023-04-02T08:22:11.833Z,1.83
2023-04-02T08:24:29.145Z,1.70
2023-04-02T08:26:46.404Z,1.80
2023-04-02T08:29:04.350Z,1.80
2023-04-02T08:31:21.433Z,2.05
2023-04-02T08:33:38.731Z,2.00
2023-04-02T08:35:56.767Z,1.80
2023-04-02T08:38:14.080Z,1.80
2023-04-02T08:40:31.057Z,1.80
2023-04-02T08:42:48.091Z,1.73
2023-04-02T08:45:17.169Z,1.90
2023-04-02T08:47:41.292Z,1.55
2023-04-02T08:49:59.192Z,1.60
2023-04-02T08:52:16.500Z,1.50
2023-04-02T08:54:34.722Z,1.65
2023-04-02T08:56:51.884Z,1.60
2023-04-02T08:59:08.999Z,1.40
2023-04-02T09:01:25.971Z,1.50
2023-04-02T09:03:44.028Z,1.67
2023-04-02T09:06:01.234Z,1.90
2023-04-02T09:08:18.489Z,1.50
2023-04-02T09:10:35.815Z,1.40
2023-04-02T09:12:53.115Z,1.50
2023-04-02T09:15:10.353Z,1.40
2023-04-02T09:17:27.432Z,1.40
2023-04-02T09:19:44.579Z,1.25
2023-04-02T09:22:02.653Z,1.10
2023-04-02T09:24:19.837Z,1.00
2023-04-02T09:26:36.722Z,1.00
2023-04-02T09:28:53.678Z,0.95
2023-04-02T09:31:10.719Z,0.80
2023-04-02T09:33:27.762Z,0.80
2023-04-02T09:35:44.815Z,0.60
2023-04-02T09:38:02.141Z,0.80
2023-04-02T09:40:20.440Z,0.68
2023-04-02T09:42:37.476Z,0.98
2023-04-02T09:44:54.443Z,0.80
2023-04-02T09:47:11.762Z,0.85
2023-04-02T09:49:28.980Z,1.00
2023-04-02T09:51:46.045Z,1.00
2023-04-02T09:54:03.326Z,1.00
2023-04-02T09:56:20.634Z,1.00
2023-04-02T09:58:37.656Z,0.90
2023-04-02T10:00:54.697Z,0.82
2023-04-02T10:03:11.587Z,0.93
2023-04-02T10:05:40.108Z,1.00
2023-04-02T10:07:58.511Z,0.80
2023-04-02T10:10:15.838Z,0.77
2023-04-02T10:12:32.853Z,1.00
2023-04-02T10:14:49.823Z,0.73
2023-04-02T10:17:06.820Z,1.10
2023-04-02T10:19:24.112Z,1.15
2023-04-02T10:21:41.317Z,0.98
2023-04-02T10:23:58.665Z,1.20
2023-04-02T10:26:16.005Z,1.00
2023-04-02T10:28:33.210Z,0.90
2023-04-02T10:30:51.219Z,1.10
2023-04-02T10:33:09.251Z,1.02
2023-04-02T10:35:26.182Z,1.00
2023-04-02T10:37:43.475Z,0.85
2023-04-02T10:40:00.524Z,0.85
2023-04-02T10:42:17.769Z,0.90
2023-04-02T10:44:35.098Z,0.77
2023-04-02T10:46:52.100Z,0.70
2023-04-02T10:49:10.066Z,0.80
2023-04-02T10:51:27.412Z,0.80
2023-04-02T10:53:45.417Z,0.80
2023-04-02T10:56:02.707Z,0.80
2023-04-02T10:58:20.038Z,0.90
2023-04-02T11:00:37.130Z,1.10
2023-04-02T11:02:55.457Z,0.98
2023-04-02T11:05:12.777Z,0.90
2023-04-02T11:07:30.892Z,0.80
2023-04-02T11:09:48.005Z,0.90
2023-04-02T11:12:05.265Z,0.80
2023-04-02T11:14:22.302Z,0.70
2023-04-02T11:16:42.674Z,0.70
2023-04-02T11:19:01.763Z,0.82
2023-04-02T11:21:18.724Z,0.70
2023-04-02T11:23:35.936Z,0.70
2023-04-02T11:25:52.853Z,0.68
2023-04-02T11:28:10.145Z,0.90
2023-04-02T11:30:27.153Z,0.70
2023-04-02T11:32:44.417Z,0.70
2023-04-02T11:35:06.475Z,0.80
2023-04-02T11:37:24.657Z,0.70
2023-04-02T11:39:41.700Z,0.70
2023-04-02T11:41:58.969Z,0.60
2023-04-02T11:44:17.144Z,1.20
2023-04-02T11:46:34.291Z,0.90
2023-04-02T11:48:51.586Z,0.75
2023-04-02T11:51:08.749Z,0.70
2023-04-02T11:53:25.864Z,0.60
2023-04-02T11:55:42.867Z,0.90
2023-04-02T11:57:59.915Z,0.80
2023-04-02T12:00:18.086Z,0.60
2023-04-02T12:02:35.667Z,1.08
2023-04-02T12:04:52.922Z,1.05
2023-04-02T12:07:09.991Z,1.08
2023-04-02T12:09:27.337Z,0.90
2023-04-02T12:11:44.634Z,1.13
2023-04-02T12:14:01.620Z,1.75
2023-04-02T12:16:18.651Z,2.10
2023-04-02T12:18:35.566Z,1.45
2023-04-02T12:20:52.873Z,1.10
2023-04-02T12:23:09.812Z,1.20
2023-04-02T12:25:26.963Z,1.17
2023-04-02T12:27:44.949Z,1.05
2023-04-02T12:30:02.163Z,1.00
2023-04-02T12:32:19.043Z,1.10
2023-04-02T12:34:36.036Z,0.90
2023-04-02T12:36:53.103Z,1.10
2023-04-02T12:39:10.340Z,1.20
2023-04-02T12:41:27.359Z,1.00
2023-04-02T12:43:44.458Z,1.33
2023-04-02T12:46:01.602Z,0.95
2023-04-02T12:48:18.899Z,1.20
2023-04-02T12:50:35.985Z,1.00
2023-04-02T12:52:53.164Z,1.20
2023-04-02T12:55:10.449Z,1.20
2023-04-02T12:57:28.795Z,1.20
2023-04-02T12:59:46.131Z,1.40
2023-04-02T13:02:04.481Z,1.50
2023-04-02T13:04:21.536Z,1.92
2023-04-02T13:06:38.573Z,2.10
2023-04-02T13:08:55.804Z,2.00
2023-04-02T13:11:13.006Z,1.70
2023-04-02T13:13:29.947Z,1.60
2023-04-02T13:15:46.943Z,1.80
2023-04-02T13:18:04.304Z,1.60
2023-04-02T13:20:21.419Z,1.80
2023-04-02T13:22:38.437Z,1.80
2023-04-02T13:24:55.512Z,2.05
2023-04-02T13:27:12.816Z,2.22
2023-04-02T13:29:29.854Z,2.10
2023-04-02T13:31:46.943Z,2.50
2023-04-02T13:34:03.982Z,4.18
2023-04-02T13:36:22.295Z,6.75
2023-04-02T13:38:39.586Z,3.92
2023-04-02T13:40:56.501Z,3.78
2023-04-02T13:43:13.735Z,3.20
2023-04-02T13:45:31.178Z,3.00
2023-04-02T13:47:48.242Z,2.58
2023-04-02T13:50:05.303Z,3.35
2023-04-02T13:52:22.615Z,8.95
2023-04-02T13:54:40.966Z,3.42
2023-04-02T13:56:57.969Z,3.47
2023-04-02T13:59:14.961Z,3.80
2023-04-02T14:01:32.058Z,2.70
2023-04-02T14:03:49.392Z,2.55
2023-04-02T14:06:06.282Z,2.60
2023-04-02T14:08:23.331Z,2.60
2023-04-02T14:10:40.261Z,3.75
2023-04-02T14:12:58.484Z,2.80
2023-04-02T14:15:15.477Z,2.35
2023-04-02T14:17:33.525Z,2.35
2023-04-02T14:19:50.527Z,2.60
2023-04-02T14:22:07.836Z,2.33
2023-04-02T14:24:24.808Z,2.30
2023-04-02T14:26:41.813Z,2.40
2023-04-02T14:28:59.050Z,2.30
2023-04-02T14:31:16.046Z,2.58
2023-04-02T14:33:33.102Z,2.50
2023-04-02T14:35:51.390Z,3.25
2023-04-02T14:38:08.297Z,3.10
2023-04-02T14:40:25.650Z,3.10
2023-04-02T14:42:42.586Z,3.13
2023-04-02T14:44:59.834Z,9.68
2023-04-02T14:47:17.147Z,4.03
2023-04-02T14:49:35.063Z,3.67
2023-04-02T14:51:52.106Z,3.92
2023-04-02T14:54:09.009Z,3.33
2023-04-02T14:56:27.264Z,2.90
2023-04-02T14:58:44.140Z,2.80
2023-04-02T15:01:01.068Z,3.00
2023-04-02T15:03:18.375Z,3.42
2023-04-02T15:05:36.490Z,3.00
2023-04-02T15:07:53.594Z,2.85
2023-04-02T15:10:10.473Z,3.40
2023-04-02T15:12:27.347Z,3.70
2023-04-02T15:14:44.372Z,2.90
2023-04-02T15:17:01.485Z,3.97
2023-04-02T15:19:18.713Z,3.20
2023-04-02T15:21:43.385Z,3.05
2023-04-02T15:24:07.141Z,2.70
2023-04-02T15:26:24.203Z,2.72
2023-04-02T15:28:41.157Z,2.80
2023-04-02T15:30:58.418Z,2.83
2023-04-02T15:33:15.718Z,3.95
2023-04-02T15:35:32.766Z,3.58
2023-04-02T15:37:50.990Z,3.38
2023-04-02T15:40:08.275Z,2.80
2023-04-02T15:42:26.607Z,2.95
2023-04-02T15:44:44.685Z,3.03
2023-04-02T15:47:01.823Z,2.65
2023-04-02T15:49:19.952Z,3.00
2023-04-02T15:51:36.960Z,3.10
2023-04-02T15:53:53.937Z,2.80
2023-04-02T15:56:10.879Z,2.38
2023-04-02T15:58:28.100Z,2.30
2023-04-02T16:00:45.556Z,2.53
2023-04-02T16:03:02.768Z,2.90
2023-04-02T16:05:20.220Z,2.45
2023-04-02T16:07:37.512Z,2.58
2023-04-02T16:09:54.804Z,2.65
2023-04-02T16:12:12.033Z,2.25
2023-04-02T16:14:30.053Z,2.60
2023-04-02T16:16:47.419Z,2.40
2023-04-02T16:19:04.720Z,2.50
2023-04-02T16:21:21.863Z,2.50
2023-04-02T16:23:38.922Z,2.40
2023-04-02T16:25:56.214Z,2.40
2023-04-02T16:28:13.356Z,2.45
2023-04-02T16:30:30.494Z,2.58
2023-04-02T16:32:47.903Z,2.70
2023-04-02T16:35:31.031Z,2.58
2023-04-02T16:37:42.635Z,2.78
2023-04-02T16:40:00.015Z,2.53
2023-04-02T16:42:17.324Z,2.67
2023-04-02T16:44:34.626Z,2.70
2023-04-02T16:46:51.527Z,2.50
2023-04-02T16:49:08.969Z,2.70
2023-04-02T16:51:25.940Z,2.65
2023-04-02T16:53:54.391Z,2.90
2023-04-02T16:56:15.790Z,2.97
2023-04-02T16:58:32.751Z,3.10
2023-04-02T17:00:49.818Z,2.85
2023-04-02T17:03:07.278Z,3.10
2023-04-02T17:05:24.740Z,3.50
2023-04-02T17:07:42.205Z,3.28
2023-04-02T17:09:59.433Z,3.58
2023-04-02T17:12:16.638Z,5.22
2023-04-02T17:14:34.688Z,4.97
2023-04-02T17:16:51.814Z,4.50
2023-04-02T17:19:08.871Z,4.63
2023-04-02T17:21:26.020Z,3.90
2023-04-02T17:23:55.448Z,4.13
2023-04-02T17:26:13.554Z,4.10
2023-04-02T17:28:31.504Z,4.20
2023-04-02T17:30:48.752Z,3.70
2023-04-02T17:33:06.053Z,3.88
2023-04-02T17:35:24.185Z,4.13
2023-04-02T17:37:41.231Z,3.85
2023-04-02T17:39:58.587Z,3.92
2023-04-02T17:42:15.630Z,3.95
2023-04-02T17:44:32.741Z,3.92
2023-04-02T17:46:49.812Z,4.40
2023-04-02T17:49:07.047Z,4.18
2023-04-02T17:51:25.748Z,3.80
2023-04-02T17:53:43.518Z,3.47
2023-04-02T17:56:00.516Z,3.40
2023-04-02T17:58:17.464Z,3.47
2023-04-02T18:00:35.968Z,3.55
2023-04-02T18:02:53.590Z,3.10
2023-04-02T18:05:11.515Z,3.55
2023-04-02T18:07:28.824Z,3.58
2023-04-02T18:09:45.820Z,3.70
2023-04-02T18:12:03.169Z,3.40
2023-04-02T18:14:21.030Z,3.83
2023-04-02T18:16:38.360Z,3.53
2023-04-02T18:18:56.421Z,3.97
2023-04-02T18:21:14.199Z,4.00
2023-04-02T18:23:31.239Z,3.47
2023-04-02T18:25:48.449Z,3.53
2023-04-02T18:28:06.462Z,3.20
2023-04-02T18:30:23.672Z,3.20
2023-04-02T18:32:41.817Z,3.72
2023-04-02T18:34:59.079Z,3.30
2023-04-02T18:37:16.047Z,3.83
2023-04-02T18:39:33.126Z,3.60
2023-04-02T18:41:51.142Z,3.50
2023-04-02T18:44:09.366Z,3.65
2023-04-02T18:46:26.753Z,3.08
2023-04-02T18:48:43.751Z,3.58
2023-04-02T18:51:00.954Z,3.25
2023-04-02T18:53:17.992Z,3.22
2023-04-02T18:55:35.032Z,3.10
2023-04-02T18:57:53.253Z,3.30
2023-04-02T19:00:10.220Z,3.28
2023-04-02T19:02:27.214Z,3.00
2023-04-02T19:04:44.263Z,3.25
2023-04-02T19:07:01.195Z,3.50
2023-04-02T19:09:18.490Z,3.08
2023-04-02T19:11:35.501Z,3.13
2023-04-02T19:13:53.722Z,3.40
2023-04-02T19:16:11.100Z,3.20
2023-04-02T19:18:28.505Z,3.50
2023-04-02T19:20:45.515Z,3.00
2023-04-02T19:23:02.842Z,3.35
2023-04-02T19:25:20.234Z,3.75
2023-04-02T19:27:37.574Z,3.10
2023-04-02T19:29:54.903Z,3.38
2023-04-02T19:32:12.960Z,3.20
2023-04-02T19:34:29.835Z,3.10
2023-04-02T19:36:46.777Z,2.97
2023-04-02T19:39:04.023Z,3.33
2023-04-02T19:41:20.955Z,3.08
2023-04-02T19:43:38.308Z,3.22
2023-04-02T19:45:55.649Z,3.30
2023-04-02T19:48:12.682Z,3.10
2023-04-02T19:50:29.922Z,3.00
2023-04-02T19:52:47.197Z,3.20
2023-04-02T19:55:04.302Z,3.22
2023-04-02T19:57:21.497Z,3.30
2023-04-02T19:59:39.549Z,3.10
2023-04-02T20:01:56.603Z,3.25
2023-04-02T20:04:13.919Z,3.13
2023-04-02T20:06:31.207Z,2.78
2023-04-02T20:08:48.101Z,3.10
2023-04-02T20:11:06.337Z,3.22
2023-04-02T20:13:23.562Z,2.95
2023-04-02T20:15:41.596Z,2.92
2023-04-02T20:17:59.690Z,3.10
2023-04-02T20:20:17.970Z,2.95
2023-04-02T20:22:35.372Z,2.83
2023-04-02T20:24:52.297Z,3.08
2023-04-02T20:27:09.330Z,3.08
2023-04-02T20:29:26.373Z,3.00
2023-04-02T20:31:43.399Z,3.45
2023-04-02T20:34:00.731Z,3.17
2023-04-02T20:36:18.183Z,2.97
2023-04-02T20:38:36.270Z,3.35
2023-04-02T20:40:53.573Z,3.17
2023-04-02T20:43:10.601Z,3.03
2023-04-02T20:45:27.468Z,2.95
2023-04-02T20:47:44.817Z,3.25
2023-04-02T20:50:01.875Z,2.90
2023-04-02T20:52:18.844Z,3.00
2023-04-02T20:54:36.056Z,3.85
2023-04-02T20:56:53.059Z,4.63
2023-04-02T20:59:10.013Z,5.43
2023-04-02T21:01:27.142Z,4.50
2023-04-02T21:03:44.271Z,3.78
2023-04-02T21:06:01.434Z,3.58
2023-04-02T21:08:18.282Z,3.10
2023-04-02T21:10:35.370Z,3.25
2023-04-02T21:12:52.787Z,2.90
2023-04-02T21:15:09.908Z,3.35
2023-04-02T21:17:26.989Z,3.70
2023-04-02T21:19:44.296Z,3.40
2023-04-02T21:22:01.400Z,3.08
2023-04-02T21:24:18.677Z,3.20
2023-04-02T21:26:35.743Z,2.95
2023-04-02T21:28:53.105Z,3.03
2023-04-02T21:31:10.156Z,2.97
2023-04-02T21:33:27.251Z,3.20
2023-04-02T21:35:44.370Z,2.85
2023-04-02T21:38:01.373Z,2.90
2023-04-02T21:40:18.518Z,3.20
2023-04-02T21:42:35.575Z,2.70
2023-04-02T21:44:53.569Z,2.75
2023-04-02T21:47:10.949Z,3.00
2023-04-02T21:49:28.064Z,2.90
2023-04-02T21:51:45.339Z,3.00
2023-04-02T21:54:02.396Z,3.50
2023-04-02T21:56:19.438Z,2.70
2023-04-02T21:58:37.358Z,3.05
2023-04-02T22:00:54.334Z,2.85
2023-04-02T22:03:13.661Z,2.80
2023-04-02T22:05:36.102Z,3.13
2023-04-02T22:07:53.574Z,2.60
2023-04-02T22:10:10.527Z,2.70
2023-04-02T22:12:27.443Z,2.70
2023-04-02T22:14:45.427Z,2.70
2023-04-02T22:17:03.810Z,2.67
2023-04-02T22:19:20.928Z,2.70
2023-04-02T22:21:37.956Z,2.50
2023-04-02T22:23:56.192Z,2.25
2023-04-02T22:26:14.126Z,2.70
2023-04-02T22:28:31.126Z,2.50
2023-04-02T22:30:48.576Z,2.50
2023-04-02T22:33:05.543Z,2.33
2023-04-02T22:35:22.838Z,2.15
2023-04-02T22:37:39.993Z,2.28
2023-04-02T22:39:57.068Z,2.70
2023-04-02T22:42:14.132Z,2.50
2023-04-02T22:44:31.633Z,2.40
2023-04-02T22:46:48.607Z,2.40
2023-04-02T22:49:05.910Z,2.28
2023-04-02T22:51:22.994Z,2.20
2023-04-02T22:53:40.282Z,2.30
2023-04-02T22:55:57.364Z,2.70
2023-04-02T22:58:14.660Z,2.42
2023-04-02T23:00:32.573Z,2.78
2023-04-02T23:02:49.621Z,2.42
2023-04-02T23:05:07.648Z,2.38
2023-04-02T23:07:24.649Z,2.78
2023-04-02T23:09:41.693Z,2.72
2023-04-02T23:11:58.565Z,2.58
2023-04-02T23:14:15.512Z,2.75
2023-04-02T23:16:32.936Z,2.65
2023-04-02T23:18:50.032Z,2.83
2023-04-02T23:21:07.132Z,2.63
2023-04-02T23:23:24.519Z,2.88
2023-04-02T23:25:41.783Z,2.50
2023-04-02T23:27:59.781Z,2.70
2023-04-02T23:30:17.722Z,2.70
2023-04-02T23:32:34.731Z,2.80
2023-04-02T23:34:53.052Z,2.50
2023-04-02T23:37:10.326Z,2.50
2023-04-02T23:39:27.427Z,2.88
2023-04-02T23:41:46.156Z,2.63
2023-04-02T23:44:04.190Z,2.60
2023-04-02T23:46:22.822Z,2.53
2023-04-02T23:48:40.486Z,2.25
2023-04-02T23:50:57.528Z,2.90
2023-04-02T23:53:15.871Z,2.70
2023-04-02T23:55:33.805Z,2.88
2023-04-02T23:57:50.886Z,2.55
